sensor_id;sensor_type;location;lat;lon;timestamp;P1;durP1;ratioP1;P2;durP2;ratioP2
3939;SDS011;1984;48.312;9.244;2022-08-19T00:02:51;33.47;;;22.23;;
3939;SDS011;1984;48.312;9.244;2022-08-19T00:05:17;29.40;;;20.77;;
3939;SDS011;1984;48.312;9.244;2022-08-19T00:07:44;35.67;;;23.13;;
3939;SDS011;1984;48.312;9.244;2022-08-19T00:10:11;31.57;;;22.10;;
3939;SDS011;1984;48.312;9.244;2022-08-19T00:12:38;29.10;;;21.60;;
3939;SDS011;1984;48.312;9.244;2022-08-19T00:15:05;30.97;;;21.90;;
3939;SDS011;1984;48.312;9.244;2022-08-19T00:17:35;32.30;;;21.33;;
3939;SDS011;1984;48.312;9.244;2022-08-19T00:20:01;33.90;;;21.93;;
3939;SDS011;1984;48.312;9.244;2022-08-19T00:22:27;30.97;;;19.57;;
3939;SDS011;1984;48.312;9.244;2022-08-19T00:24:53;46.90;;;22.67;;
3939;SDS011;1984;48.312;9.244;2022-08-19T00:27:19;29.23;;;20.77;;
3939;SDS011;1984;48.312;9.244;2022-08-19T00:29:44;33.47;;;20.33;;
3939;SDS011;1984;48.312;9.244;2022-08-19T00:32:10;33.40;;;20.70;;
3939;SDS011;1984;48.312;9.244;2022-08-19T00:34:35;32.17;;;21.17;;
3939;SDS011;1984;48.312;9.244;2022-08-19T00:37:01;35.93;;;21.73;;
3939;SDS011;1984;48.312;9.244;2022-08-19T00:39:26;30.30;;;21.27;;
3939;SDS011;1984;48.312;9.244;2022-08-19T00:41:52;35.67;;;20.00;;
3939;SDS011;1984;48.312;9.244;2022-08-19T00:44:19;32.70;;;21.70;;
3939;SDS011;1984;48.312;9.244;2022-08-19T00:46:51;29.27;;;19.53;;
3939;SDS011;1984;48.312;9.244;2022-08-19T00:52:28;31.50;;;20.60;;
3939;SDS011;1984;48.312;9.244;2022-08-19T00:54:58;31.40;;;20.47;;
3939;SDS011;1984;48.312;9.244;2022-08-19T00:57:27;32.67;;;20.40;;
3939;SDS011;1984;48.312;9.244;2022-08-19T00:59:57;29.43;;;20.00;;
3939;SDS011;1984;48.312;9.244;2022-08-19T01:02:24;32.43;;;21.03;;
3939;SDS011;1984;48.312;9.244;2022-08-19T01:04:51;33.03;;;19.80;;
3939;SDS011;1984;48.312;9.244;2022-08-19T01:07:17;32.53;;;20.13;;
3939;SDS011;1984;48.312;9.244;2022-08-19T01:09:43;30.10;;;19.70;;
3939;SDS011;1984;48.312;9.244;2022-08-19T01:12:08;29.37;;;19.20;;
3939;SDS011;1984;48.312;9.244;2022-08-19T01:14:34;33.40;;;21.10;;
3939;SDS011;1984;48.312;9.244;2022-08-19T01:17:02;33.27;;;20.80;;
3939;SDS011;1984;48.312;9.244;2022-08-19T01:19:29;34.40;;;22.23;;
3939;SDS011;1984;48.312;9.244;2022-08-19T01:22:46;33.87;;;22.00;;
3939;SDS011;1984;48.312;9.244;2022-08-19T01:24:48;41.80;;;21.30;;
3939;SDS011;1984;48.312;9.244;2022-08-19T01:27:14;31.20;;;20.33;;
3939;SDS011;1984;48.312;9.244;2022-08-19T01:29:41;31.30;;;20.00;;
3939;SDS011;1984;48.312;9.244;2022-08-19T01:32:09;33.23;;;20.17;;
3939;SDS011;1984;48.312;9.244;2022-08-19T01:34:37;34.60;;;20.77;;
3939;SDS011;1984;48.312;9.244;2022-08-19T01:37:07;37.43;;;21.23;;
3939;SDS011;1984;48.312;9.244;2022-08-19T01:39:36;30.73;;;19.97;;
3939;SDS011;1984;48.312;9.244;2022-08-19T01:42:02;31.43;;;19.90;;
3939;SDS011;1984;48.312;9.244;2022-08-19T01:44:29;33.30;;;20.60;;
3939;SDS011;1984;48.312;9.244;2022-08-19T01:46:55;34.53;;;19.33;;
3939;SDS011;1984;48.312;9.244;2022-08-19T01:49:21;34.80;;;21.73;;
3939;SDS011;1984;48.312;9.244;2022-08-19T01:51:48;29.17;;;19.67;;
3939;SDS011;1984;48.312;9.244;2022-08-19T01:54:15;29.50;;;18.73;;
3939;SDS011;1984;48.312;9.244;2022-08-19T01:56:41;32.60;;;19.87;;
3939;SDS011;1984;48.312;9.244;2022-08-19T01:59:11;30.07;;;20.17;;
3939;SDS011;1984;48.312;9.244;2022-08-19T02:01:39;29.83;;;19.17;;
3939;SDS011;1984;48.312;9.244;2022-08-19T02:04:05;35.30;;;20.13;;
3939;SDS011;1984;48.312;9.244;2022-08-19T02:06:31;31.43;;;19.90;;
3939;SDS011;1984;48.312;9.244;2022-08-19T02:08:58;31.77;;;19.60;;
3939;SDS011;1984;48.312;9.244;2022-08-19T02:11:24;32.37;;;19.60;;
3939;SDS011;1984;48.312;9.244;2022-08-19T02:13:56;29.50;;;18.27;;
3939;SDS011;1984;48.312;9.244;2022-08-19T02:16:22;32.40;;;17.90;;
3939;SDS011;1984;48.312;9.244;2022-08-19T02:18:48;33.10;;;20.27;;
3939;SDS011;1984;48.312;9.244;2022-08-19T02:21:14;33.40;;;19.70;;
3939;SDS011;1984;48.312;9.244;2022-08-19T02:23:44;32.10;;;21.07;;
3939;SDS011;1984;48.312;9.244;2022-08-19T02:26:11;32.07;;;20.40;;
3939;SDS011;1984;48.312;9.244;2022-08-19T02:28:38;32.80;;;19.30;;
3939;SDS011;1984;48.312;9.244;2022-08-19T02:31:08;34.27;;;20.03;;
3939;SDS011;1984;48.312;9.244;2022-08-19T02:33:35;30.90;;;19.90;;
3939;SDS011;1984;48.312;9.244;2022-08-19T02:36:02;37.30;;;21.03;;
3939;SDS011;1984;48.312;9.244;2022-08-19T02:38:29;34.33;;;19.93;;
3939;SDS011;1984;48.312;9.244;2022-08-19T02:40:59;38.43;;;20.43;;
3939;SDS011;1984;48.312;9.244;2022-08-19T02:43:27;30.97;;;19.20;;
3939;SDS011;1984;48.312;9.244;2022-08-19T02:45:55;35.90;;;21.60;;
3939;SDS011;1984;48.312;9.244;2022-08-19T02:48:21;34.37;;;20.07;;
3939;SDS011;1984;48.312;9.244;2022-08-19T02:50:49;30.90;;;19.50;;
3939;SDS011;1984;48.312;9.244;2022-08-19T02:53:20;33.07;;;21.00;;
3939;SDS011;1984;48.312;9.244;2022-08-19T02:55:51;36.10;;;20.70;;
3939;SDS011;1984;48.312;9.244;2022-08-19T02:58:18;39.50;;;21.23;;
3939;SDS011;1984;48.312;9.244;2022-08-19T03:00:52;35.53;;;21.30;;
3939;SDS011;1984;48.312;9.244;2022-08-19T03:03:19;37.67;;;20.47;;
3939;SDS011;1984;48.312;9.244;2022-08-19T03:05:45;34.90;;;21.47;;
3939;SDS011;1984;48.312;9.244;2022-08-19T03:08:11;31.33;;;20.33;;
3939;SDS011;1984;48.312;9.244;2022-08-19T03:10:55;37.87;;;21.63;;
3939;SDS011;1984;48.312;9.244;2022-08-19T03:13:20;39.77;;;21.30;;
3939;SDS011;1984;48.312;9.244;2022-08-19T03:15:47;35.47;;;20.50;;
3939;SDS011;1984;48.312;9.244;2022-08-19T03:18:13;33.60;;;20.33;;
3939;SDS011;1984;48.312;9.244;2022-08-19T03:20:46;42.83;;;22.17;;
3939;SDS011;1984;48.312;9.244;2022-08-19T03:23:14;39.53;;;21.57;;
3939;SDS011;1984;48.312;9.244;2022-08-19T03:25:42;35.27;;;20.17;;
3939;SDS011;1984;48.312;9.244;2022-08-19T03:28:10;38.40;;;22.10;;
3939;SDS011;1984;48.312;9.244;2022-08-19T03:30:37;33.97;;;21.40;;
3939;SDS011;1984;48.312;9.244;2022-08-19T03:33:05;30.70;;;19.57;;
3939;SDS011;1984;48.312;9.244;2022-08-19T03:35:32;33.57;;;20.50;;
3939;SDS011;1984;48.312;9.244;2022-08-19T03:37:58;37.67;;;20.70;;
3939;SDS011;1984;48.312;9.244;2022-08-19T03:40:24;36.73;;;20.83;;
3939;SDS011;1984;48.312;9.244;2022-08-19T03:42:50;39.70;;;22.90;;
3939;SDS011;1984;48.312;9.244;2022-08-19T03:45:16;40.50;;;22.23;;
3939;SDS011;1984;48.312;9.244;2022-08-19T03:47:42;38.70;;;22.03;;
3939;SDS011;1984;48.312;9.244;2022-08-19T03:50:08;34.57;;;21.20;;
3939;SDS011;1984;48.312;9.244;2022-08-19T03:52:34;40.93;;;21.63;;
3939;SDS011;1984;48.312;9.244;2022-08-19T03:55:00;38.27;;;19.83;;
3939;SDS011;1984;48.312;9.244;2022-08-19T03:57:26;33.13;;;19.60;;
3939;SDS011;1984;48.312;9.244;2022-08-19T03:59:52;28.90;;;18.90;;
3939;SDS011;1984;48.312;9.244;2022-08-19T04:02:17;41.27;;;22.27;;
3939;SDS011;1984;48.312;9.244;2022-08-19T04:04:43;36.87;;;21.63;;
3939;SDS011;1984;48.312;9.244;2022-08-19T04:07:09;34.70;;;20.87;;
3939;SDS011;1984;48.312;9.244;2022-08-19T04:09:37;35.00;;;20.83;;
3939;SDS011;1984;48.312;9.244;2022-08-19T04:12:03;36.47;;;21.20;;
3939;SDS011;1984;48.312;9.244;2022-08-19T04:14:30;39.60;;;21.77;;
3939;SDS011;1984;48.312;9.244;2022-08-19T04:16:57;34.20;;;20.80;;
3939;SDS011;1984;48.312;9.244;2022-08-19T04:19:23;37.63;;;21.10;;
3939;SDS011;1984;48.312;9.244;2022-08-19T04:21:50;37.00;;;20.87;;
3939;SDS011;1984;48.312;9.244;2022-08-19T04:24:18;36.67;;;20.73;;
3939;SDS011;1984;48.312;9.244;2022-08-19T04:26:44;33.50;;;19.50;;
3939;SDS011;1984;48.312;9.244;2022-08-19T04:29:12;36.30;;;21.17;;
3939;SDS011;1984;48.312;9.244;2022-08-19T04:31:40;40.93;;;23.13;;
3939;SDS011;1984;48.312;9.244;2022-08-19T04:34:08;46.27;;;23.13;;
3939;SDS011;1984;48.312;9.244;2022-08-19T04:36:37;33.57;;;21.33;;
3939;SDS011;1984;48.312;9.244;2022-08-19T04:39:08;40.67;;;22.30;;
3939;SDS011;1984;48.312;9.244;2022-08-19T04:41:40;38.40;;;22.07;;
3939;SDS011;1984;48.312;9.244;2022-08-19T04:44:24;43.40;;;21.20;;
3939;SDS011;1984;48.312;9.244;2022-08-19T04:46:50;38.93;;;22.00;;
3939;SDS011;1984;48.312;9.244;2022-08-19T04:49:17;41.03;;;23.77;;
3939;SDS011;1984;48.312;9.244;2022-08-19T04:51:44;39.60;;;23.03;;
3939;SDS011;1984;48.312;9.244;2022-08-19T04:54:12;43.57;;;22.30;;
3939;SDS011;1984;48.312;9.244;2022-08-19T04:56:39;36.60;;;21.73;;
3939;SDS011;1984;48.312;9.244;2022-08-19T04:59:05;40.33;;;23.70;;
3939;SDS011;1984;48.312;9.244;2022-08-19T05:01:32;38.53;;;21.83;;
3939;SDS011;1984;48.312;9.244;2022-08-19T05:04:01;39.30;;;23.60;;
3939;SDS011;1984;48.312;9.244;2022-08-19T05:06:29;38.67;;;22.23;;
3939;SDS011;1984;48.312;9.244;2022-08-19T05:08:58;40.33;;;23.17;;
3939;SDS011;1984;48.312;9.244;2022-08-19T05:11:26;41.20;;;24.77;;
3939;SDS011;1984;48.312;9.244;2022-08-19T05:13:54;40.47;;;24.97;;
3939;SDS011;1984;48.312;9.244;2022-08-19T05:16:21;43.90;;;23.70;;
3939;SDS011;1984;48.312;9.244;2022-08-19T05:18:47;43.30;;;25.20;;
3939;SDS011;1984;48.312;9.244;2022-08-19T05:21:33;41.53;;;22.67;;
3939;SDS011;1984;48.312;9.244;2022-08-19T05:24:18;39.63;;;23.87;;
3939;SDS011;1984;48.312;9.244;2022-08-19T05:26:46;44.63;;;23.57;;
3939;SDS011;1984;48.312;9.244;2022-08-19T05:29:14;39.07;;;23.10;;
3939;SDS011;1984;48.312;9.244;2022-08-19T05:31:41;47.57;;;26.43;;
3939;SDS011;1984;48.312;9.244;2022-08-19T05:34:07;59.63;;;28.10;;
3939;SDS011;1984;48.312;9.244;2022-08-19T05:36:34;51.47;;;27.27;;
3939;SDS011;1984;48.312;9.244;2022-08-19T05:39:04;47.50;;;26.30;;
3939;SDS011;1984;48.312;9.244;2022-08-19T05:41:30;45.73;;;25.97;;
3939;SDS011;1984;48.312;9.244;2022-08-19T05:43:56;46.63;;;27.30;;
3939;SDS011;1984;48.312;9.244;2022-08-19T05:46:23;44.37;;;25.67;;
3939;SDS011;1984;48.312;9.244;2022-08-19T05:48:49;42.53;;;26.20;;
3939;SDS011;1984;48.312;9.244;2022-08-19T05:51:15;50.07;;;27.20;;
3939;SDS011;1984;48.312;9.244;2022-08-19T05:53:41;44.30;;;25.73;;
3939;SDS011;1984;48.312;9.244;2022-08-19T05:56:14;48.97;;;26.90;;
3939;SDS011;1984;48.312;9.244;2022-08-19T05:58:41;45.50;;;26.47;;
3939;SDS011;1984;48.312;9.244;2022-08-19T06:01:11;44.47;;;24.97;;
3939;SDS011;1984;48.312;9.244;2022-08-19T06:03:40;56.70;;;26.97;;
3939;SDS011;1984;48.312;9.244;2022-08-19T06:06:06;40.27;;;23.40;;
3939;SDS011;1984;48.312;9.244;2022-08-19T06:08:33;46.73;;;25.73;;
3939;SDS011;1984;48.312;9.244;2022-08-19T06:11:18;51.63;;;26.17;;
3939;SDS011;1984;48.312;9.244;2022-08-19T06:13:47;59.90;;;27.73;;
3939;SDS011;1984;48.312;9.244;2022-08-19T06:16:15;44.60;;;25.37;;
3939;SDS011;1984;48.312;9.244;2022-08-19T06:18:50;43.40;;;24.83;;
3939;SDS011;1984;48.312;9.244;2022-08-19T06:21:22;48.30;;;25.63;;
3939;SDS011;1984;48.312;9.244;2022-08-19T06:23:49;43.07;;;25.00;;
3939;SDS011;1984;48.312;9.244;2022-08-19T06:26:16;52.83;;;25.83;;
3939;SDS011;1984;48.312;9.244;2022-08-19T06:28:43;46.37;;;25.70;;
3939;SDS011;1984;48.312;9.244;2022-08-19T06:31:11;45.73;;;26.33;;
3939;SDS011;1984;48.312;9.244;2022-08-19T06:33:48;43.93;;;25.67;;
3939;SDS011;1984;48.312;9.244;2022-08-19T06:36:25;58.10;;;26.90;;
3939;SDS011;1984;48.312;9.244;2022-08-19T06:38:54;46.00;;;25.33;;
3939;SDS011;1984;48.312;9.244;2022-08-19T06:41:22;54.13;;;26.47;;
3939;SDS011;1984;48.312;9.244;2022-08-19T06:43:48;48.53;;;26.50;;
3939;SDS011;1984;48.312;9.244;2022-08-19T06:46:14;40.10;;;24.67;;
3939;SDS011;1984;48.312;9.244;2022-08-19T06:48:41;46.87;;;26.70;;
3939;SDS011;1984;48.312;9.244;2022-08-19T06:51:07;43.70;;;24.60;;
3939;SDS011;1984;48.312;9.244;2022-08-19T06:53:32;56.43;;;26.77;;
3939;SDS011;1984;48.312;9.244;2022-08-19T06:55:58;49.67;;;26.27;;
3939;SDS011;1984;48.312;9.244;2022-08-19T06:58:27;46.43;;;25.50;;
3939;SDS011;1984;48.312;9.244;2022-08-19T07:00:57;45.53;;;24.30;;
3939;SDS011;1984;48.312;9.244;2022-08-19T07:03:27;47.60;;;26.43;;
3939;SDS011;1984;48.312;9.244;2022-08-19T07:05:56;54.40;;;24.93;;
3939;SDS011;1984;48.312;9.244;2022-08-19T07:08:22;41.90;;;23.97;;
3939;SDS011;1984;48.312;9.244;2022-08-19T07:10:49;40.90;;;25.07;;
3939;SDS011;1984;48.312;9.244;2022-08-19T07:13:14;43.53;;;24.87;;
3939;SDS011;1984;48.312;9.244;2022-08-19T07:15:40;52.10;;;26.23;;
3939;SDS011;1984;48.312;9.244;2022-08-19T07:18:05;42.27;;;25.20;;
3939;SDS011;1984;48.312;9.244;2022-08-19T07:20:31;44.33;;;24.80;;
3939;SDS011;1984;48.312;9.244;2022-08-19T07:22:57;46.77;;;25.80;;
3939;SDS011;1984;48.312;9.244;2022-08-19T07:25:23;46.03;;;22.83;;
3939;SDS011;1984;48.312;9.244;2022-08-19T07:27:49;46.70;;;26.70;;
3939;SDS011;1984;48.312;9.244;2022-08-19T07:30:15;38.70;;;24.60;;
3939;SDS011;1984;48.312;9.244;2022-08-19T07:32:41;41.50;;;24.67;;
3939;SDS011;1984;48.312;9.244;2022-08-19T07:35:08;48.67;;;26.10;;
3939;SDS011;1984;48.312;9.244;2022-08-19T07:37:34;41.23;;;24.43;;
3939;SDS011;1984;48.312;9.244;2022-08-19T07:40:02;46.17;;;25.00;;
3939;SDS011;1984;48.312;9.244;2022-08-19T07:42:29;41.83;;;25.43;;
3939;SDS011;1984;48.312;9.244;2022-08-19T07:44:55;49.93;;;24.67;;
3939;SDS011;1984;48.312;9.244;2022-08-19T07:47:20;47.17;;;26.70;;
3939;SDS011;1984;48.312;9.244;2022-08-19T07:49:46;40.87;;;24.57;;
3939;SDS011;1984;48.312;9.244;2022-08-19T07:52:12;43.90;;;25.83;;
3939;SDS011;1984;48.312;9.244;2022-08-19T07:54:38;46.90;;;28.13;;
3939;SDS011;1984;48.312;9.244;2022-08-19T07:57:04;46.80;;;25.13;;
3939;SDS011;1984;48.312;9.244;2022-08-19T07:59:30;46.23;;;27.20;;
3939;SDS011;1984;48.312;9.244;2022-08-19T08:01:56;43.80;;;24.40;;
3939;SDS011;1984;48.312;9.244;2022-08-19T08:04:24;48.27;;;26.77;;
3939;SDS011;1984;48.312;9.244;2022-08-19T08:07:08;41.27;;;26.20;;
3939;SDS011;1984;48.312;9.244;2022-08-19T08:09:52;46.40;;;26.50;;
3939;SDS011;1984;48.312;9.244;2022-08-19T08:12:19;47.73;;;27.93;;
3939;SDS011;1984;48.312;9.244;2022-08-19T08:14:59;45.63;;;27.07;;
3939;SDS011;1984;48.312;9.244;2022-08-19T08:17:28;46.33;;;27.93;;
3939;SDS011;1984;48.312;9.244;2022-08-19T08:19:55;50.90;;;26.87;;
3939;SDS011;1984;48.312;9.244;2022-08-19T08:22:22;41.93;;;26.20;;
3939;SDS011;1984;48.312;9.244;2022-08-19T08:25:08;44.37;;;25.97;;
3939;SDS011;1984;48.312;9.244;2022-08-19T08:27:36;38.07;;;24.63;;
3939;SDS011;1984;48.312;9.244;2022-08-19T08:30:05;38.73;;;24.00;;
3939;SDS011;1984;48.312;9.244;2022-08-19T08:32:36;38.10;;;23.60;;
3939;SDS011;1984;48.312;9.244;2022-08-19T08:35:03;34.50;;;20.67;;
3939;SDS011;1984;48.312;9.244;2022-08-19T08:37:30;36.83;;;22.87;;
3939;SDS011;1984;48.312;9.244;2022-08-19T08:39:55;34.43;;;20.40;;
3939;SDS011;1984;48.312;9.244;2022-08-19T08:42:27;35.43;;;21.03;;
3939;SDS011;1984;48.312;9.244;2022-08-19T08:45:10;26.93;;;19.37;;
3939;SDS011;1984;48.312;9.244;2022-08-19T08:47:40;29.53;;;19.30;;
3939;SDS011;1984;48.312;9.244;2022-08-19T08:50:20;27.20;;;17.57;;
3939;SDS011;1984;48.312;9.244;2022-08-19T08:52:50;28.00;;;18.43;;
3939;SDS011;1984;48.312;9.244;2022-08-19T08:55:22;33.40;;;20.47;;
3939;SDS011;1984;48.312;9.244;2022-08-19T08:57:53;27.57;;;16.97;;
3939;SDS011;1984;48.312;9.244;2022-08-19T09:00:26;23.53;;;16.73;;
3939;SDS011;1984;48.312;9.244;2022-08-19T09:02:55;26.27;;;17.43;;
3939;SDS011;1984;48.312;9.244;2022-08-19T09:05:22;29.37;;;18.33;;
3939;SDS011;1984;48.312;9.244;2022-08-19T09:07:59;26.63;;;16.50;;
3939;SDS011;1984;48.312;9.244;2022-08-19T09:13:26;25.63;;;16.63;;
3939;SDS011;1984;48.312;9.244;2022-08-19T09:16:19;30.30;;;19.40;;
3939;SDS011;1984;48.312;9.244;2022-08-19T09:18:50;27.70;;;17.43;;
3939;SDS011;1984;48.312;9.244;2022-08-19T09:21:18;25.67;;;16.60;;
3939;SDS011;1984;48.312;9.244;2022-08-19T09:23:45;27.10;;;16.97;;
3939;SDS011;1984;48.312;9.244;2022-08-19T09:26:14;27.47;;;17.27;;
3939;SDS011;1984;48.312;9.244;2022-08-19T09:28:41;20.43;;;13.97;;
3939;SDS011;1984;48.312;9.244;2022-08-19T09:31:12;27.70;;;16.37;;
3939;SDS011;1984;48.312;9.244;2022-08-19T09:33:39;22.00;;;14.03;;
3939;SDS011;1984;48.312;9.244;2022-08-19T09:36:06;24.57;;;14.00;;
3939;SDS011;1984;48.312;9.244;2022-08-19T09:38:33;25.03;;;14.30;;
3939;SDS011;1984;48.312;9.244;2022-08-19T09:41:04;20.90;;;13.93;;
3939;SDS011;1984;48.312;9.244;2022-08-19T09:43:31;17.70;;;13.10;;
3939;SDS011;1984;48.312;9.244;2022-08-19T09:45:58;17.83;;;13.43;;
3939;SDS011;1984;48.312;9.244;2022-08-19T09:48:25;16.13;;;12.17;;
3939;SDS011;1984;48.312;9.244;2022-08-19T09:50:51;17.00;;;11.80;;
3939;SDS011;1984;48.312;9.244;2022-08-19T09:53:16;16.73;;;12.23;;
3939;SDS011;1984;48.312;9.244;2022-08-19T09:55:42;18.07;;;11.80;;
3939;SDS011;1984;48.312;9.244;2022-08-19T09:58:08;14.73;;;10.60;;
3939;SDS011;1984;48.312;9.244;2022-08-19T10:00:34;13.47;;;9.57;;
3939;SDS011;1984;48.312;9.244;2022-08-19T10:03:02;12.53;;;8.40;;
3939;SDS011;1984;48.312;9.244;2022-08-19T10:05:28;11.07;;;6.47;;
3939;SDS011;1984;48.312;9.244;2022-08-19T10:08:12;11.80;;;8.37;;
3939;SDS011;1984;48.312;9.244;2022-08-19T10:10:38;16.40;;;9.10;;
3939;SDS011;1984;48.312;9.244;2022-08-19T10:13:03;11.80;;;8.67;;
3939;SDS011;1984;48.312;9.244;2022-08-19T10:15:29;12.70;;;9.57;;
3939;SDS011;1984;48.312;9.244;2022-08-19T10:17:55;9.87;;;7.80;;
3939;SDS011;1984;48.312;9.244;2022-08-19T10:20:21;8.60;;;5.60;;
3939;SDS011;1984;48.312;9.244;2022-08-19T10:22:47;5.53;;;4.50;;
3939;SDS011;1984;48.312;9.244;2022-08-19T10:25:13;6.57;;;4.80;;
3939;SDS011;1984;48.312;9.244;2022-08-19T10:27:39;7.60;;;6.10;;
3939;SDS011;1984;48.312;9.244;2022-08-19T10:30:05;25.90;;;5.83;;
3939;SDS011;1984;48.312;9.244;2022-08-19T10:32:31;7.30;;;6.00;;
3939;SDS011;1984;48.312;9.244;2022-08-19T10:34:57;5.43;;;4.40;;
3939;SDS011;1984;48.312;9.244;2022-08-19T10:37:22;6.97;;;4.90;;
3939;SDS011;1984;48.312;9.244;2022-08-19T10:39:49;4.70;;;4.17;;
3939;SDS011;1984;48.312;9.244;2022-08-19T10:42:15;4.70;;;3.90;;
3939;SDS011;1984;48.312;9.244;2022-08-19T10:44:43;4.97;;;4.47;;
3939;SDS011;1984;48.312;9.244;2022-08-19T10:47:09;6.30;;;4.67;;
3939;SDS011;1984;48.312;9.244;2022-08-19T10:49:35;7.90;;;4.70;;
3939;SDS011;1984;48.312;9.244;2022-08-19T10:52:20;5.30;;;4.80;;
3939;SDS011;1984;48.312;9.244;2022-08-19T10:54:58;5.30;;;4.57;;
3939;SDS011;1984;48.312;9.244;2022-08-19T10:57:43;5.57;;;4.97;;
3939;SDS011;1984;48.312;9.244;2022-08-19T11:00:09;6.20;;;4.60;;
3939;SDS011;1984;48.312;9.244;2022-08-19T11:02:35;7.70;;;4.90;;
3939;SDS011;1984;48.312;9.244;2022-08-19T11:05:00;4.37;;;3.70;;
3939;SDS011;1984;48.312;9.244;2022-08-19T11:07:26;6.93;;;3.80;;
3939;SDS011;1984;48.312;9.244;2022-08-19T11:09:51;7.30;;;4.93;;
3939;SDS011;1984;48.312;9.244;2022-08-19T11:12:17;5.20;;;4.70;;
3939;SDS011;1984;48.312;9.244;2022-08-19T11:14:44;8.97;;;7.07;;
3939;SDS011;1984;48.312;9.244;2022-08-19T11:17:09;7.00;;;5.60;;
3939;SDS011;1984;48.312;9.244;2022-08-19T11:19:38;5.77;;;5.20;;
3939;SDS011;1984;48.312;9.244;2022-08-19T11:22:04;6.93;;;5.87;;
3939;SDS011;1984;48.312;9.244;2022-08-19T11:24:34;6.77;;;4.73;;
3939;SDS011;1984;48.312;9.244;2022-08-19T11:27:02;4.97;;;4.43;;
3939;SDS011;1984;48.312;9.244;2022-08-19T11:29:32;6.23;;;5.03;;
3939;SDS011;1984;48.312;9.244;2022-08-19T11:31:59;5.60;;;4.47;;
3939;SDS011;1984;48.312;9.244;2022-08-19T11:34:28;5.50;;;4.53;;
3939;SDS011;1984;48.312;9.244;2022-08-19T11:36:55;4.97;;;4.43;;
3939;SDS011;1984;48.312;9.244;2022-08-19T11:39:25;4.50;;;4.10;;
3939;SDS011;1984;48.312;9.244;2022-08-19T11:41:52;5.63;;;4.37;;
3939;SDS011;1984;48.312;9.244;2022-08-19T11:44:17;5.07;;;4.57;;
3939;SDS011;1984;48.312;9.244;2022-08-19T11:46:43;6.80;;;5.47;;
3939;SDS011;1984;48.312;9.244;2022-08-19T11:49:11;15.73;;;8.40;;
3939;SDS011;1984;48.312;9.244;2022-08-19T11:51:38;17.00;;;12.67;;
3939;SDS011;1984;48.312;9.244;2022-08-19T11:54:04;15.70;;;11.67;;
3939;SDS011;1984;48.312;9.244;2022-08-19T11:56:30;22.10;;;15.37;;
3939;SDS011;1984;48.312;9.244;2022-08-19T11:58:56;21.63;;;15.43;;
3939;SDS011;1984;48.312;9.244;2022-08-19T12:01:23;22.63;;;16.50;;
3939;SDS011;1984;48.312;9.244;2022-08-19T12:03:51;20.13;;;14.93;;
3939;SDS011;1984;48.312;9.244;2022-08-19T12:06:22;23.93;;;16.67;;
3939;SDS011;1984;48.312;9.244;2022-08-19T12:08:54;23.60;;;17.00;;
3939;SDS011;1984;48.312;9.244;2022-08-19T12:11:21;28.40;;;17.67;;
3939;SDS011;1984;48.312;9.244;2022-08-19T12:13:47;26.90;;;16.90;;
3939;SDS011;1984;48.312;9.244;2022-08-19T12:16:22;26.37;;;17.43;;
3939;SDS011;1984;48.312;9.244;2022-08-19T12:18:49;28.90;;;18.10;;
3939;SDS011;1984;48.312;9.244;2022-08-19T12:21:16;24.10;;;16.83;;
3939;SDS011;1984;48.312;9.244;2022-08-19T12:23:46;26.30;;;19.53;;
3939;SDS011;1984;48.312;9.244;2022-08-19T12:26:11;24.87;;;17.50;;
3939;SDS011;1984;48.312;9.244;2022-08-19T12:28:37;25.67;;;17.63;;
3939;SDS011;1984;48.312;9.244;2022-08-19T12:31:03;25.23;;;17.87;;
3939;SDS011;1984;48.312;9.244;2022-08-19T12:33:29;26.10;;;17.70;;
3939;SDS011;1984;48.312;9.244;2022-08-19T12:35:59;26.33;;;18.47;;
3939;SDS011;1984;48.312;9.244;2022-08-19T12:38:26;23.00;;;16.70;;
3939;SDS011;1984;48.312;9.244;2022-08-19T12:40:52;26.70;;;19.30;;
3939;SDS011;1984;48.312;9.244;2022-08-19T12:43:18;29.23;;;19.20;;
3939;SDS011;1984;48.312;9.244;2022-08-19T12:45:45;25.50;;;17.80;;
3939;SDS011;1984;48.312;9.244;2022-08-19T12:48:11;26.47;;;20.13;;
3939;SDS011;1984;48.312;9.244;2022-08-19T12:50:39;26.43;;;18.97;;
3939;SDS011;1984;48.312;9.244;2022-08-19T12:53:05;26.73;;;19.13;;
3939;SDS011;1984;48.312;9.244;2022-08-19T12:55:30;30.67;;;20.50;;
3939;SDS011;1984;48.312;9.244;2022-08-19T12:57:56;29.93;;;17.13;;
3939;SDS011;1984;48.312;9.244;2022-08-19T13:00:22;26.60;;;17.73;;
3939;SDS011;1984;48.312;9.244;2022-08-19T13:02:49;26.43;;;17.97;;
3939;SDS011;1984;48.312;9.244;2022-08-19T13:05:17;23.97;;;17.50;;
3939;SDS011;1984;48.312;9.244;2022-08-19T13:07:46;23.43;;;16.60;;
3939;SDS011;1984;48.312;9.244;2022-08-19T13:10:14;21.43;;;16.13;;
3939;SDS011;1984;48.312;9.244;2022-08-19T13:12:42;19.57;;;15.37;;
3939;SDS011;1984;48.312;9.244;2022-08-19T13:15:09;21.60;;;15.73;;
3939;SDS011;1984;48.312;9.244;2022-08-19T13:17:35;23.00;;;17.30;;
3939;SDS011;1984;48.312;9.244;2022-08-19T13:20:01;21.87;;;15.73;;
3939;SDS011;1984;48.312;9.244;2022-08-19T13:22:28;24.27;;;15.50;;
3939;SDS011;1984;48.312;9.244;2022-08-19T13:24:53;25.53;;;17.47;;
3939;SDS011;1984;48.312;9.244;2022-08-19T13:27:19;21.20;;;15.57;;
3939;SDS011;1984;48.312;9.244;2022-08-19T13:29:45;24.77;;;17.00;;
3939;SDS011;1984;48.312;9.244;2022-08-19T13:32:29;22.53;;;16.50;;
3939;SDS011;1984;48.312;9.244;2022-08-19T13:35:13;21.57;;;16.03;;
3939;SDS011;1984;48.312;9.244;2022-08-19T13:37:40;24.27;;;17.40;;
3939;SDS011;1984;48.312;9.244;2022-08-19T13:40:06;36.43;;;17.60;;
3939;SDS011;1984;48.312;9.244;2022-08-19T13:42:36;26.30;;;17.90;;
3939;SDS011;1984;48.312;9.244;2022-08-19T13:45:01;22.67;;;16.70;;
3939;SDS011;1984;48.312;9.244;2022-08-19T13:47:27;22.97;;;15.67;;
3939;SDS011;1984;48.312;9.244;2022-08-19T13:49:53;25.03;;;16.43;;
3939;SDS011;1984;48.312;9.244;2022-08-19T13:52:18;22.70;;;15.10;;
3939;SDS011;1984;48.312;9.244;2022-08-19T13:54:44;21.83;;;17.13;;
3939;SDS011;1984;48.312;9.244;2022-08-19T13:57:09;22.27;;;16.63;;
3939;SDS011;1984;48.312;9.244;2022-08-19T13:59:35;24.30;;;17.40;;
3939;SDS011;1984;48.312;9.244;2022-08-19T14:02:01;22.87;;;17.50;;
3939;SDS011;1984;48.312;9.244;2022-08-19T14:04:26;24.37;;;16.80;;
3939;SDS011;1984;48.312;9.244;2022-08-19T14:06:52;23.27;;;17.07;;
3939;SDS011;1984;48.312;9.244;2022-08-19T14:09:18;24.63;;;17.47;;
3939;SDS011;1984;48.312;9.244;2022-08-19T14:11:43;25.03;;;17.27;;
3939;SDS011;1984;48.312;9.244;2022-08-19T14:14:11;23.47;;;18.40;;
3939;SDS011;1984;48.312;9.244;2022-08-19T14:16:37;22.80;;;17.10;;
3939;SDS011;1984;48.312;9.244;2022-08-19T14:19:02;23.30;;;17.27;;
3939;SDS011;1984;48.312;9.244;2022-08-19T14:21:28;21.93;;;16.40;;
3939;SDS011;1984;48.312;9.244;2022-08-19T14:23:54;24.83;;;18.03;;
3939;SDS011;1984;48.312;9.244;2022-08-19T14:26:20;26.03;;;17.50;;
3939;SDS011;1984;48.312;9.244;2022-08-19T14:28:46;22.63;;;16.30;;
3939;SDS011;1984;48.312;9.244;2022-08-19T14:31:15;21.30;;;15.87;;
3939;SDS011;1984;48.312;9.244;2022-08-19T14:33:44;21.00;;;16.10;;
3939;SDS011;1984;48.312;9.244;2022-08-19T14:36:11;21.30;;;16.60;;
3939;SDS011;1984;48.312;9.244;2022-08-19T14:38:37;20.80;;;16.07;;
3939;SDS011;1984;48.312;9.244;2022-08-19T14:41:09;20.00;;;15.40;;
3939;SDS011;1984;48.312;9.244;2022-08-19T14:43:41;22.23;;;15.87;;
3939;SDS011;1984;48.312;9.244;2022-08-19T14:46:11;17.07;;;14.37;;
3939;SDS011;1984;48.312;9.244;2022-08-19T14:48:39;22.47;;;15.77;;
3939;SDS011;1984;48.312;9.244;2022-08-19T14:51:05;22.17;;;16.00;;
3939;SDS011;1984;48.312;9.244;2022-08-19T14:53:31;20.80;;;15.93;;
3939;SDS011;1984;48.312;9.244;2022-08-19T14:55:58;20.77;;;16.53;;
3939;SDS011;1984;48.312;9.244;2022-08-19T14:58:24;22.63;;;16.50;;
3939;SDS011;1984;48.312;9.244;2022-08-19T15:00:50;26.07;;;18.50;;
3939;SDS011;1984;48.312;9.244;2022-08-19T15:03:15;24.67;;;17.90;;